createdAt,value
2018-02-18T00:01:30.540Z,0.10
2018-02-18T00:03:58.090Z,0.19
2018-02-18T00:06:26.008Z,0.27
2018-02-18T00:08:53.664Z,0.47
2018-02-18T00:11:21.238Z,0.37
2018-02-18T00:13:55.098Z,0.21
2018-02-18T00:16:22.943Z,0.10
2018-02-18T00:18:50.538Z,0.14
2018-02-18T00:21:18.411Z,0.23
2018-02-18T00:23:46.409Z,0.11
2018-02-18T00:26:14.309Z,0.19
2018-02-18T00:28:42.147Z,0.21
2018-02-18T00:31:09.845Z,0.28
2018-02-18T00:33:37.535Z,0.21
2018-02-18T00:36:05.219Z,0.38
2018-02-18T00:38:32.780Z,0.47
2018-02-18T00:41:00.313Z,0.21
2018-02-18T00:43:27.959Z,0.27
2018-02-18T00:45:56.327Z,0.45
2018-02-18T00:48:24.070Z,0.47
2018-02-18T00:50:51.730Z,0.55
2018-02-18T00:53:19.275Z,0.53
2018-02-18T00:55:47.364Z,0.60
2018-02-18T00:58:14.998Z,0.60
2018-02-18T01:00:42.580Z,0.34
2018-02-18T01:03:10.139Z,0.47
2018-02-18T01:05:38.381Z,0.44
2018-02-18T01:08:06.379Z,0.40
2018-02-18T01:10:33.979Z,0.16
2018-02-18T01:13:01.566Z,0.30
2018-02-18T01:15:29.172Z,0.35
2018-02-18T01:17:56.800Z,0.44
2018-02-18T01:20:24.331Z,0.52
2018-02-18T01:22:51.995Z,0.35
2018-02-18T01:25:19.904Z,0.52
2018-02-18T01:27:47.525Z,0.59
2018-02-18T01:30:15.175Z,0.59
2018-02-18T01:32:43.025Z,0.56
2018-02-18T01:35:10.680Z,0.49
2018-02-18T01:37:38.295Z,0.34
2018-02-18T01:40:05.913Z,0.17
2018-02-18T01:42:34.288Z,0.23
2018-02-18T01:45:02.013Z,0.24
2018-02-18T01:47:30.236Z,0.27
2018-02-18T01:49:57.855Z,0.29
2018-02-18T01:52:25.480Z,0.52
2018-02-18T01:54:53.024Z,0.46
2018-02-18T01:57:20.714Z,0.58
2018-02-18T01:59:48.329Z,0.60
2018-02-18T02:02:16.200Z,0.56
2018-02-18T02:04:43.729Z,0.48
2018-02-18T02:07:11.355Z,0.27
2018-02-18T02:09:39.106Z,0.10
2018-02-18T02:12:06.796Z,0.09
2018-02-18T02:14:34.395Z,0.09
2018-02-18T02:17:02.315Z,0.14
2018-02-18T02:19:29.849Z,0.32
2018-02-18T02:21:57.423Z,0.33
2018-02-18T02:24:25.040Z,0.16
2018-02-18T02:26:52.624Z,0.30
2018-02-18T02:29:20.314Z,0.11
2018-02-18T02:31:47.979Z,0.21
2018-02-18T02:34:15.599Z,0.11
2018-02-18T02:36:43.405Z,0.11
2018-02-18T02:39:10.965Z,0.33
2018-02-18T02:41:38.691Z,0.15
2018-02-18T02:44:06.228Z,0.20
2018-02-18T02:46:34.043Z,0.12
2018-02-18T02:49:01.702Z,0.22
2018-02-18T02:51:29.485Z,0.07
2018-02-18T02:53:57.024Z,0.16
2018-02-18T02:56:25.315Z,0.27
2018-02-18T02:58:53.073Z,0.28
2018-02-18T03:01:20.655Z,0.26
2018-02-18T03:03:48.226Z,0.31
2018-02-18T03:06:16.972Z,0.28
2018-02-18T03:08:44.732Z,0.08
2018-02-18T03:11:12.534Z,0.19
2018-02-18T03:13:40.279Z,0.51
2018-02-18T03:16:08.056Z,0.65
2018-02-18T03:18:35.841Z,0.72
2018-02-18T03:21:03.539Z,0.66
2018-02-18T03:23:31.069Z,0.71
2018-02-18T03:25:58.595Z,0.50
2018-02-18T03:28:26.125Z,0.43
2018-02-18T03:30:53.705Z,0.57
2018-02-18T03:33:21.383Z,0.51
2018-02-18T03:35:48.992Z,0.55
2018-02-18T03:38:16.748Z,0.53
2018-02-18T03:40:44.596Z,0.54
2018-02-18T03:43:12.182Z,0.62
2018-02-18T03:45:39.756Z,0.54
2018-02-18T03:48:07.388Z,0.47
2018-02-18T03:50:35.103Z,0.38
2018-02-18T03:53:02.824Z,0.24
2018-02-18T03:55:30.625Z,0.29
2018-02-18T03:57:58.444Z,0.23
2018-02-18T04:00:25.985Z,0.15
2018-02-18T04:02:53.920Z,0.22
2018-02-18T04:05:21.480Z,0.23
2018-02-18T04:07:49.132Z,0.18
2018-02-18T04:10:16.820Z,0.22
2018-02-18T04:12:44.348Z,0.40
2018-02-18T04:15:12.185Z,0.37
2018-02-18T04:17:39.856Z,0.51
2018-02-18T04:20:07.630Z,0.45
2018-02-18T04:22:35.218Z,0.28
2018-02-18T04:25:02.869Z,0.31
2018-02-18T04:27:30.574Z,0.24
2018-02-18T04:29:58.349Z,0.09
2018-02-18T04:32:26.064Z,0.06
2018-02-18T04:34:54.354Z,0.21
2018-02-18T04:37:22.116Z,0.02
2018-02-18T04:39:49.671Z,0.10
2018-02-18T04:42:17.384Z,0.08
2018-02-18T04:44:45.024Z,0.17
2018-02-18T04:47:12.762Z,0.27
2018-02-18T04:49:40.861Z,0.37
2018-02-18T04:52:08.978Z,0.32
2018-02-18T04:54:36.636Z,0.43
2018-02-18T04:57:04.160Z,0.32
2018-02-18T04:59:32.042Z,0.19
2018-02-18T05:01:59.783Z,0.23
2018-02-18T05:04:28.360Z,0.30
2018-02-18T05:06:55.888Z,0.43
2018-02-18T05:09:23.431Z,0.69
2018-02-18T05:11:50.989Z,0.65
2018-02-18T05:14:18.605Z,0.72
2018-02-18T05:16:46.240Z,0.69
2018-02-18T05:19:13.905Z,0.69
2018-02-18T05:21:41.659Z,0.64
2018-02-18T05:24:09.784Z,0.45
2018-02-18T05:26:37.315Z,0.51
2018-02-18T05:29:05.404Z,0.55
2018-02-18T05:31:32.943Z,0.50
2018-02-18T05:34:00.516Z,0.39
2018-02-18T05:36:28.048Z,0.48
2018-02-18T05:38:56.835Z,0.41
2018-02-18T05:41:24.482Z,0.45
2018-02-18T05:43:52.609Z,0.29
2018-02-18T05:46:20.125Z,0.33
2018-02-18T05:48:47.685Z,0.17
2018-02-18T05:51:15.209Z,0.05
2018-02-18T05:53:42.758Z,0.19
2018-02-18T05:56:10.516Z,-0.14
2018-02-18T05:58:38.255Z,-0.19
2018-02-18T06:01:05.795Z,-0.17
2018-02-18T06:03:33.901Z,-0.30
2018-02-18T06:06:01.451Z,-0.41
2018-02-18T06:08:29.113Z,-0.49
2018-02-18T06:10:56.684Z,-0.51
2018-02-18T06:13:24.535Z,-0.40
2018-02-18T06:15:52.206Z,-0.34
2018-02-18T06:18:19.871Z,-0.36
2018-02-18T06:20:47.425Z,-0.43
2018-02-18T06:23:15.605Z,-0.44
2018-02-18T06:25:43.240Z,-0.44
2018-02-18T06:28:10.874Z,-0.43
2018-02-18T06:30:38.540Z,-0.35
2018-02-18T06:33:06.368Z,-0.26
2018-02-18T06:35:33.954Z,-0.04
2018-02-18T06:38:01.588Z,-0.02
2018-02-18T06:40:29.134Z,-0.06
2018-02-18T06:42:56.681Z,-0.07
2018-02-18T06:45:24.419Z,0.13
2018-02-18T06:47:51.949Z,0.20
2018-02-18T06:50:20.307Z,0.33
2018-02-18T06:52:48.018Z,0.25
2018-02-18T06:55:15.579Z,0.43
2018-02-18T06:57:43.120Z,0.39
2018-02-18T07:00:10.860Z,0.50
2018-02-18T07:02:38.459Z,0.26
2018-02-18T07:05:06.171Z,-0.12
2018-02-18T07:07:33.709Z,-0.21
2018-02-18T07:10:01.285Z,-0.05
2018-02-18T07:12:29.140Z,0.33
2018-02-18T07:14:57.120Z,0.51
2018-02-18T07:17:24.738Z,0.64
2018-02-18T07:19:52.789Z,0.75
2018-02-18T07:22:20.515Z,0.49
2018-02-18T07:24:48.044Z,0.38
2018-02-18T07:27:15.587Z,0.36
2018-02-18T07:29:43.244Z,0.19
2018-02-18T07:32:11.116Z,0.34
2018-02-18T07:34:38.780Z,0.19
2018-02-18T07:37:06.418Z,0.17
2018-02-18T07:39:33.995Z,0.13
2018-02-18T07:42:01.625Z,0.59
2018-02-18T07:44:29.275Z,0.63
2018-02-18T07:46:56.839Z,0.83
2018-02-18T07:49:24.368Z,0.65
2018-02-18T07:51:52.424Z,0.86
2018-02-18T07:54:20.035Z,1.01
2018-02-18T07:56:47.843Z,1.09
2018-02-18T07:59:15.525Z,1.53
2018-02-18T08:01:43.364Z,1.79
2018-02-18T08:04:10.900Z,1.82
2018-02-18T08:06:38.494Z,2.05
2018-02-18T08:09:06.041Z,2.11
2018-02-18T08:11:33.690Z,1.32
2018-02-18T08:14:01.409Z,0.88
2018-02-18T08:16:29.070Z,1.29
2018-02-18T08:18:56.838Z,1.67
2018-02-18T08:21:24.520Z,1.86
2018-02-18T08:23:53.390Z,2.03
2018-02-18T08:26:21.000Z,1.48
2018-02-18T08:28:49.096Z,1.63
2018-02-18T08:31:16.739Z,2.18
2018-02-18T08:33:44.655Z,2.00
2018-02-18T08:36:12.180Z,1.74
2018-02-18T08:38:39.894Z,1.81
2018-02-18T08:41:07.797Z,1.99
2018-02-18T08:43:36.404Z,2.47
2018-02-18T08:46:04.338Z,1.98
2018-02-18T08:48:31.940Z,2.09
2018-02-18T08:50:59.458Z,2.05
2018-02-18T08:53:27.166Z,1.51
2018-02-18T08:55:54.829Z,1.36
2018-02-18T08:58:23.035Z,1.50
2018-02-18T09:00:50.586Z,1.59
2018-02-18T09:03:18.136Z,1.43
2018-02-18T09:05:45.866Z,1.52
2018-02-18T09:08:13.408Z,1.55
2018-02-18T09:10:40.941Z,1.29
2018-02-18T09:13:08.704Z,1.40
2018-02-18T09:15:36.360Z,1.57
2018-02-18T09:18:04.100Z,1.53
2018-02-18T09:20:31.797Z,1.86
2018-02-18T09:22:59.479Z,2.14
2018-02-18T09:25:27.140Z,2.53
2018-02-18T09:27:54.987Z,2.04
2018-02-18T09:30:22.539Z,2.46
2018-02-18T09:32:50.234Z,2.70
2018-02-18T09:35:17.934Z,3.39
2018-02-18T09:37:45.755Z,3.14
2018-02-18T09:40:13.330Z,3.30
2018-02-18T09:42:40.880Z,3.24
2018-02-18T09:45:08.983Z,3.92
2018-02-18T09:47:37.083Z,4.35
2018-02-18T09:50:04.874Z,4.36
2018-02-18T09:52:32.635Z,4.03
2018-02-18T09:55:00.315Z,4.39
2018-02-18T09:57:28.719Z,4.24
2018-02-18T09:59:56.400Z,4.57
2018-02-18T10:02:23.937Z,4.73
2018-02-18T10:04:51.547Z,5.00
2018-02-18T10:07:19.280Z,4.66
2018-02-18T10:09:46.879Z,4.36
2018-02-18T10:12:14.577Z,4.34
2018-02-18T10:14:42.178Z,4.34
2018-02-18T10:17:09.710Z,4.09
2018-02-18T10:19:37.394Z,3.72
2018-02-18T10:22:05.244Z,4.24
2018-02-18T10:24:32.984Z,3.90
2018-02-18T10:27:00.521Z,2.92
2018-02-18T10:29:28.185Z,3.47
2018-02-18T10:31:55.842Z,3.17
2018-02-18T10:34:23.502Z,2.50
2018-02-18T10:36:51.230Z,3.24
2018-02-18T10:39:19.186Z,2.92
2018-02-18T10:41:46.987Z,3.49
2018-02-18T10:44:14.725Z,3.25
2018-02-18T10:46:42.535Z,3.42
2018-02-18T10:49:10.156Z,3.20
2018-02-18T10:51:37.812Z,3.38
2018-02-18T10:54:05.455Z,3.13
2018-02-18T10:56:33.122Z,2.89
2018-02-18T10:59:00.674Z,2.66
2018-02-18T11:01:28.267Z,2.76
2018-02-18T11:03:55.876Z,2.78
2018-02-18T11:06:23.485Z,3.36
2018-02-18T11:08:51.111Z,3.77
2018-02-18T11:11:18.678Z,3.29
2018-02-18T11:13:46.349Z,3.02
2018-02-18T11:16:13.955Z,2.86
2018-02-18T11:18:41.777Z,2.65
2018-02-18T11:21:09.376Z,3.24
2018-02-18T11:23:36.895Z,2.81
2018-02-18T11:26:04.459Z,3.13
2018-02-18T11:28:32.106Z,2.76
2018-02-18T11:30:59.929Z,2.88
2018-02-18T11:33:27.624Z,2.68
2018-02-18T11:35:55.216Z,2.88
2018-02-18T11:38:22.854Z,3.16
2018-02-18T11:40:51.155Z,2.91
2018-02-18T11:43:18.913Z,2.91
2018-02-18T11:45:46.486Z,2.74
2018-02-18T11:48:14.042Z,2.89
2018-02-18T11:50:41.590Z,2.74
2018-02-18T11:53:10.310Z,2.48
2018-02-18T11:55:38.563Z,2.65
2018-02-18T11:58:06.255Z,3.13
2018-02-18T12:00:34.074Z,3.77
2018-02-18T12:03:01.834Z,3.91
2018-02-18T12:05:29.364Z,4.26
2018-02-18T12:07:56.999Z,3.62
2018-02-18T12:10:25.400Z,4.00
2018-02-18T12:12:53.250Z,3.78
2018-02-18T12:15:20.874Z,3.73
2018-02-18T12:17:49.152Z,3.83
2018-02-18T12:20:16.823Z,4.05
2018-02-18T12:22:44.534Z,4.50
2018-02-18T12:25:12.284Z,4.75
2018-02-18T12:27:39.921Z,4.43
2018-02-18T12:30:07.521Z,4.11
2018-02-18T12:32:35.045Z,4.09
2018-02-18T12:35:02.981Z,4.52
2018-02-18T12:37:30.539Z,3.99
2018-02-18T12:39:58.084Z,4.66
2018-02-18T12:42:25.845Z,4.75
2018-02-18T12:44:53.641Z,4.91
2018-02-18T12:47:21.290Z,5.07
2018-02-18T12:49:48.948Z,5.25
2018-02-18T12:52:16.920Z,5.47
2018-02-18T12:54:44.826Z,5.37
2018-02-18T12:57:12.446Z,5.44
2018-02-18T12:59:39.978Z,5.34
2018-02-18T13:02:07.575Z,4.84
2018-02-18T13:04:35.135Z,5.22
2018-02-18T13:07:02.740Z,5.49
2018-02-18T13:09:30.443Z,5.35
2018-02-18T13:11:58.047Z,5.05
2018-02-18T13:14:25.948Z,4.80
2018-02-18T13:16:53.613Z,4.97
2018-02-18T13:19:21.383Z,5.36
2018-02-18T13:21:49.166Z,4.84
2018-02-18T13:24:16.854Z,4.56
2018-02-18T13:26:44.738Z,4.83
2018-02-18T13:29:12.340Z,4.88
2018-02-18T13:31:40.162Z,4.50
2018-02-18T13:34:07.967Z,4.75
2018-02-18T13:36:35.599Z,4.38
2018-02-18T13:39:03.219Z,4.52
2018-02-18T13:41:30.895Z,4.83
2018-02-18T13:43:58.434Z,4.79
2018-02-18T13:46:25.980Z,4.54
2018-02-18T13:48:53.608Z,4.16
2018-02-18T13:51:21.440Z,4.58
2018-02-18T13:53:49.107Z,4.31
2018-02-18T13:56:16.788Z,4.56
2018-02-18T13:58:44.487Z,4.11
2018-02-18T14:01:12.215Z,4.00
2018-02-18T14:03:40.035Z,3.26
2018-02-18T14:06:07.580Z,3.29
2018-02-18T14:08:35.345Z,3.52
2018-02-18T14:11:03.035Z,3.38
2018-02-18T14:13:30.769Z,3.30
2018-02-18T14:15:58.331Z,2.80
2018-02-18T14:18:25.912Z,2.87
2018-02-18T14:20:53.609Z,2.80
2018-02-18T14:23:21.350Z,2.85
2018-02-18T14:25:49.030Z,2.89
2018-02-18T14:28:16.674Z,2.74
2018-02-18T14:30:44.599Z,2.89
2018-02-18T14:33:12.154Z,2.22
2018-02-18T14:35:39.821Z,2.17
2018-02-18T14:38:07.550Z,2.34
2018-02-18T14:40:35.098Z,2.35
2018-02-18T14:43:14.648Z,2.13
2018-02-18T14:45:54.240Z,2.23
2018-02-18T14:48:33.763Z,2.10
2018-02-18T14:51:13.829Z,2.15
2018-02-18T14:53:53.175Z,2.07
2018-02-18T14:59:21.903Z,2.00
2018-02-18T15:01:50.509Z,1.87
2018-02-18T15:04:18.076Z,1.97
2018-02-18T15:06:45.624Z,1.81
2018-02-18T15:09:13.441Z,1.96
2018-02-18T15:11:41.070Z,1.97
2018-02-18T15:14:08.736Z,1.76
2018-02-18T15:16:36.399Z,1.87
2018-02-18T15:19:03.974Z,1.86
2018-02-18T15:21:31.850Z,1.99
2018-02-18T15:23:59.521Z,1.84
2018-02-18T15:26:27.380Z,2.14
2018-02-18T15:28:54.971Z,1.77
2018-02-18T15:31:22.864Z,1.56
2018-02-18T15:33:50.458Z,1.69
2018-02-18T15:36:18.140Z,1.60
2018-02-18T15:38:45.824Z,1.62
2018-02-18T15:41:13.898Z,1.89
2018-02-18T15:43:41.678Z,1.73
2018-02-18T15:46:09.349Z,1.52
2018-02-18T15:48:37.308Z,1.52
2018-02-18T15:51:04.875Z,1.49
2018-02-18T15:53:32.533Z,1.42
2018-02-18T15:56:00.408Z,1.34
2018-02-18T15:58:28.006Z,1.31
2018-02-18T16:00:55.626Z,1.52
2018-02-18T16:03:23.159Z,1.38
2018-02-18T16:05:50.769Z,1.26
2018-02-18T16:08:18.444Z,1.34
2018-02-18T16:10:46.618Z,1.26
2018-02-18T16:13:14.793Z,1.23
2018-02-18T16:15:43.121Z,1.27
2018-02-18T16:18:10.859Z,1.22
2018-02-18T16:20:39.319Z,1.29
2018-02-18T16:23:07.268Z,1.36
2018-02-18T16:25:34.944Z,1.49
2018-02-18T16:28:02.833Z,1.51
2018-02-18T16:30:30.661Z,1.22
2018-02-18T16:32:59.571Z,1.52
2018-02-18T16:35:27.176Z,1.45
2018-02-18T16:37:55.346Z,1.42
2018-02-18T16:40:23.144Z,1.37
2018-02-18T16:42:50.931Z,1.33
2018-02-18T16:45:19.299Z,1.35
2018-02-18T16:47:46.930Z,1.40
2018-02-18T16:50:14.619Z,1.31
2018-02-18T16:52:42.300Z,1.39
2018-02-18T16:55:09.971Z,1.28
2018-02-18T16:57:37.734Z,1.27
2018-02-18T17:00:05.416Z,1.46
2018-02-18T17:02:33.290Z,1.13
2018-02-18T17:05:00.885Z,1.05
2018-02-18T17:07:28.604Z,1.01
2018-02-18T17:09:56.339Z,1.04
2018-02-18T17:12:24.265Z,0.89
2018-02-18T17:14:51.965Z,0.84
2018-02-18T17:17:19.656Z,1.03
2018-02-18T17:19:47.271Z,0.96
2018-02-18T17:22:14.835Z,1.19
2018-02-18T17:24:42.381Z,1.25
2018-02-18T17:27:09.916Z,1.18
2018-02-18T17:29:37.576Z,1.28
2018-02-18T17:32:05.439Z,1.13
2018-02-18T17:34:33.161Z,0.99
2018-02-18T17:37:00.820Z,1.01
2018-02-18T17:39:28.402Z,0.84
2018-02-18T17:41:56.680Z,0.88
2018-02-18T17:44:24.384Z,1.00
2018-02-18T17:46:52.108Z,0.95
2018-02-18T17:49:19.890Z,0.87
2018-02-18T17:51:47.655Z,0.89
2018-02-18T17:54:15.230Z,0.84
2018-02-18T17:56:43.115Z,0.99
2018-02-18T17:59:10.860Z,1.12
2018-02-18T18:01:38.744Z,1.26
2018-02-18T18:04:07.041Z,1.32
2018-02-18T18:06:34.692Z,1.02
2018-02-18T18:09:02.290Z,0.90
2018-02-18T18:11:30.004Z,0.82
2018-02-18T18:13:58.462Z,0.95
2018-02-18T18:16:26.186Z,1.06
2018-02-18T18:18:53.882Z,0.91
2018-02-18T18:21:21.756Z,0.84
2018-02-18T18:23:49.588Z,0.99
2018-02-18T18:26:17.116Z,1.07
2018-02-18T18:28:44.815Z,1.09
2018-02-18T18:31:12.871Z,1.04
2018-02-18T18:33:40.577Z,1.17
2018-02-18T18:36:08.755Z,1.05
2018-02-18T18:38:36.488Z,0.87
2018-02-18T18:41:04.410Z,1.35
2018-02-18T18:43:32.022Z,1.40
2018-02-18T18:45:59.592Z,1.23
2018-02-18T18:48:27.390Z,1.31
2018-02-18T18:50:54.990Z,1.35
2018-02-18T18:53:22.606Z,1.20
2018-02-18T18:55:50.177Z,1.04
2018-02-18T18:58:17.778Z,0.91
2018-02-18T19:00:45.358Z,0.69
2018-02-18T19:03:13.135Z,0.56
2018-02-18T19:05:40.932Z,0.58
2018-02-18T19:08:08.882Z,0.80
2018-02-18T19:10:36.441Z,0.92
2018-02-18T19:13:04.160Z,0.98
2018-02-18T19:15:31.737Z,1.20
2018-02-18T19:18:00.217Z,1.12
2018-02-18T19:20:27.758Z,0.88
2018-02-18T19:22:55.381Z,0.69
2018-02-18T19:25:23.010Z,0.86
2018-02-18T19:27:50.773Z,0.82
2018-02-18T19:30:18.459Z,0.73
2018-02-18T19:32:46.147Z,0.63
2018-02-18T19:35:13.809Z,0.64
2018-02-18T19:37:41.440Z,0.86
2018-02-18T19:40:09.955Z,0.88
2018-02-18T19:42:37.536Z,0.93
2018-02-18T19:45:05.114Z,1.01
2018-02-18T19:47:32.741Z,1.03
2018-02-18T19:50:00.371Z,0.73
2018-02-18T19:52:27.947Z,0.74
2018-02-18T19:54:56.576Z,0.59
2018-02-18T19:57:24.925Z,0.68
2018-02-18T19:59:53.037Z,0.69
2018-02-18T20:02:21.014Z,0.68
2018-02-18T20:04:49.628Z,0.57
2018-02-18T20:07:17.311Z,0.52
2018-02-18T20:09:44.934Z,0.50
2018-02-18T20:12:12.571Z,0.69
2018-02-18T20:14:40.284Z,0.89
2018-02-18T20:17:08.063Z,0.81
2018-02-18T20:19:35.815Z,0.96
2018-02-18T20:22:03.663Z,0.84
2018-02-18T20:24:31.347Z,0.72
2018-02-18T20:26:58.939Z,0.81
2018-02-18T20:29:26.729Z,0.65
2018-02-18T20:31:54.492Z,0.62
2018-02-18T20:34:22.203Z,0.73
2018-02-18T20:36:49.870Z,0.79
2018-02-18T20:39:17.431Z,0.85
2018-02-18T20:41:45.202Z,0.88
2018-02-18T20:44:12.772Z,0.88
2018-02-18T20:46:40.419Z,0.82
2018-02-18T20:49:08.016Z,0.82
2018-02-18T20:51:35.832Z,0.95
2018-02-18T20:54:03.616Z,0.97
2018-02-18T20:56:31.321Z,1.17
2018-02-18T20:58:59.107Z,1.12
2018-02-18T21:01:26.942Z,1.18
2018-02-18T21:03:54.791Z,1.34
2018-02-18T21:06:22.949Z,1.47
2018-02-18T21:08:50.755Z,1.40
2018-02-18T21:11:18.471Z,1.15
2018-02-18T21:13:46.298Z,1.17
2018-02-18T21:16:14.004Z,1.28
2018-02-18T21:18:41.584Z,1.29
2018-02-18T21:21:09.151Z,1.12
2018-02-18T21:23:36.879Z,1.11
2018-02-18T21:26:04.581Z,1.20
2018-02-18T21:28:32.166Z,1.25
2018-02-18T21:30:59.790Z,1.25
2018-02-18T21:33:27.652Z,1.19
2018-02-18T21:35:55.356Z,1.37
2018-02-18T21:38:22.992Z,1.20
2018-02-18T21:40:50.755Z,1.10
2018-02-18T21:43:18.492Z,1.03
2018-02-18T21:45:46.038Z,1.13
2018-02-18T21:48:13.655Z,0.98
2018-02-18T21:50:41.299Z,1.05
2018-02-18T21:53:09.232Z,1.15
2018-02-18T21:55:36.801Z,0.99
2018-02-18T21:58:04.424Z,0.74
2018-02-18T22:00:31.997Z,0.84
2018-02-18T22:02:59.968Z,0.82
2018-02-18T22:05:27.612Z,0.85
2018-02-18T22:07:55.156Z,0.62
2018-02-18T22:10:22.885Z,0.69
2018-02-18T22:12:50.476Z,0.82
2018-02-18T22:15:18.134Z,0.87
2018-02-18T22:17:45.720Z,0.85
2018-02-18T22:20:13.341Z,0.91
2018-02-18T22:22:40.941Z,0.84
2018-02-18T22:25:09.410Z,0.90
2018-02-18T22:27:37.532Z,0.95
2018-02-18T22:30:05.836Z,0.72
2018-02-18T22:32:33.539Z,0.64
2018-02-18T22:35:01.104Z,0.74
2018-02-18T22:37:28.979Z,0.72
2018-02-18T22:39:56.787Z,0.80
2018-02-18T22:42:24.405Z,0.93
2018-02-18T22:44:51.932Z,0.83
2018-02-18T22:47:19.707Z,0.63
2018-02-18T22:49:47.954Z,0.78
2018-02-18T22:52:15.741Z,0.85
2018-02-18T22:54:43.352Z,0.86
2018-02-18T22:57:11.136Z,0.80
2018-02-18T22:59:38.749Z,0.96
2018-02-18T23:02:06.445Z,1.04
2018-02-18T23:04:34.352Z,0.99
2018-02-18T23:07:07.749Z,0.97
2018-02-18T23:09:35.533Z,0.75
2018-02-18T23:12:03.095Z,0.55
2018-02-18T23:14:30.807Z,0.67
2018-02-18T23:16:58.349Z,0.62
2018-02-18T23:19:26.234Z,0.60
2018-02-18T23:21:53.756Z,0.56
2018-02-18T23:24:21.573Z,0.65
2018-02-18T23:26:49.116Z,0.61
2018-02-18T23:29:16.691Z,0.52
2018-02-18T23:31:44.215Z,0.53
2018-02-18T23:34:11.811Z,0.65
2018-02-18T23:36:39.559Z,0.45
2018-02-18T23:39:07.230Z,0.61
2018-02-18T23:41:35.090Z,0.73
2018-02-18T23:44:02.660Z,0.75
2018-02-18T23:46:30.564Z,0.80
2018-02-18T23:48:58.223Z,0.69
2018-02-18T23:51:25.771Z,0.62
2018-02-18T23:53:53.370Z,0.65
2018-02-18T23:56:21.275Z,0.54
2018-02-18T23:58:48.995Z,0.59
